Terminal Aerodrome Forecast
Issued by NWS

Home | Current Version | Previous Version | Text Only | Print | Product List | Glossary On
Versions: 1 2 3 4 5 6 7 8 9 10 11 12 13 14 15 16
000
FTUS46 KMTR 272351 AAA
TAFSNS
TAF AMD
KSNS 272351Z 2800/2824 29012KT P6SM SKC
     FM280400 30008KT P6SM OVC007
     FM280800 30004KT 6SM BR OVC003
      TEMPO 2812/2816 1SM BR
     FM281700 VRB03KT P6SM SKC
     FM281900 29007KT P6SM SKC
     FM282100 28015KT P6SM SKC=

USA.gov is the U.S. government's official web portal to all federal, state and local government web resources and services.